地図

経路データ

SID SEASON NUMBER BASIN SUBBASIN NAME ISO_TIME NATURE LAT LON WMO_WIND WMO_PRES WMO_AGENCY TRACK_TYPE DIST2LAND LANDFALL IFLAG USA_AGENCY USA_ATCF_ID USA_LAT USA_LON USA_RECORD USA_STATUS USA_WIND USA_PRES USA_SSHS USA_R34_NE USA_R34_SE USA_R34_SW USA_R34_NW USA_R50_NE USA_R50_SE USA_R50_SW USA_R50_NW USA_R64_NE USA_R64_SE USA_R64_SW USA_R64_NW USA_POCI USA_ROCI USA_RMW USA_EYE TOKYO_LAT TOKYO_LON TOKYO_GRADE TOKYO_WIND TOKYO_PRES TOKYO_R50_DIR TOKYO_R50_LONG TOKYO_R50_SHORT TOKYO_R30_DIR TOKYO_R30_LONG TOKYO_R30_SHORT TOKYO_LAND CMA_LAT CMA_LON CMA_CAT CMA_WIND CMA_PRES HKO_LAT HKO_LON HKO_CAT HKO_WIND HKO_PRES NEWDELHI_LAT NEWDELHI_LON NEWDELHI_GRADE NEWDELHI_WIND NEWDELHI_PRES NEWDELHI_CI NEWDELHI_DP NEWDELHI_POCI REUNION_LAT REUNION_LON REUNION_TYPE REUNION_WIND REUNION_PRES REUNION_TNUM REUNION_CI REUNION_RMW REUNION_R34_NE REUNION_R34_SE REUNION_R34_SW REUNION_R34_NW REUNION_R50_NE REUNION_R50_SE REUNION_R50_SW REUNION_R50_NW REUNION_R64_NE REUNION_R64_SE REUNION_R64_SW REUNION_R64_NW BOM_LAT BOM_LON BOM_TYPE BOM_WIND BOM_PRES BOM_TNUM BOM_CI BOM_RMW BOM_R34_NE BOM_R34_SE BOM_R34_SW BOM_R34_NW BOM_R50_NE BOM_R50_SE BOM_R50_SW BOM_R50_NW BOM_R64_NE BOM_R64_SE BOM_R64_SW BOM_R64_NW BOM_ROCI BOM_POCI BOM_EYE BOM_POS_METHOD BOM_PRES_METHOD NADI_LAT NADI_LON NADI_CAT NADI_WIND NADI_PRES WELLINGTON_LAT WELLINGTON_LON WELLINGTON_WIND WELLINGTON_PRES DS824_LAT DS824_LON DS824_STAGE DS824_WIND DS824_PRES TD9636_LAT TD9636_LON TD9636_STAGE TD9636_WIND TD9636_PRES TD9635_LAT TD9635_LON TD9635_WIND TD9635_PRES TD9635_ROCI NEUMANN_LAT NEUMANN_LON NEUMANN_CLASS NEUMANN_WIND NEUMANN_PRES MLC_LAT MLC_LON MLC_CLASS MLC_WIND MLC_PRES USA_GUST BOM_GUST BOM_GUST_PER REUNION_GUST REUNION_GUST_PER USA_SEAHGT USA_SEARAD_NE USA_SEARAD_SE USA_SEARAD_SW USA_SEARAD_NW STORM_SPEED STORM_DIR
2003294N11112 2003 91 WP MM NOT_NAMED 2003-10-21 00:00:00 TS 11.4000 112.400 main 342 328 O_____________ jtwc_wp WP222003 11.4000 112.400 TD 25 1002 -1 4 315
2003294N11112 2003 91 WP MM NOT_NAMED 2003-10-21 03:00:00 TS 11.5400 112.263 main 328 310 P_____________ WP222003 11.5400 112.263 TD 25 1002 -1 4 327
2003294N11112 2003 91 WP MM NOT_NAMED 2003-10-21 06:00:00 TS 11.7000 112.200 main 310 307 O_____________ jtwc_wp WP222003 11.7000 112.200 TD 25 1002 -1 3 3
2003294N11112 2003 91 WP MM NOT_NAMED 2003-10-21 09:00:00 TS 11.8799 112.275 main 314 314 P_____________ WP222003 11.8799 112.275 TD 25 1002 -1 4 44
2003294N11112 2003 91 WP MM NOT_NAMED 2003-10-21 12:00:00 TS 12.0000 112.500 main 332 332 O_____________ jtwc_wp WP222003 12.0000 112.500 TD 25 1002 -1 6 81
2003294N11112 2003 91 WP MM NOT_NAMED 2003-10-21 15:00:00 TS 11.9726 112.863 main 375 375 P_____________ WP222003 11.9726 112.863 TD 25 1002 -1 8 97
2003294N11112 2003 91 WP MM NOT_NAMED 2003-10-21 18:00:00 TS 11.9000 113.300 main 420 420 O_____________ jtwc_wp WP222003 11.9000 113.300 TD 25 1002 -1 8 95
2003294N11112 2003 91 WP MM NOT_NAMED 2003-10-21 21:00:00 TS 11.8999 113.700 main 463 463 P_____________ WP222003 11.8999 113.700 TD 25 1002 -1 8 90
2003294N11112 2003 91 WP MM NOT_NAMED 2003-10-22 00:00:00 TS 11.9000 114.100 main 501 469 O_____________ jtwc_wp WP222003 11.9000 114.100 TD 25 1002 -1 1006 130 60 8 93
2003294N11112 2003 91 WP MM NOT_NAMED 2003-10-22 03:00:00 TS 11.8649 114.492 main 469 430 P_____________ WP222003 11.8649 114.492 TD 25 1002 -1 1006 130 60 8 97
2003294N11112 2003 91 WP MM NOT_NAMED 2003-10-22 06:00:00 TS 11.8000 114.900 main 430 391 O_____________ jtwc_wp WP222003 11.8000 114.900 TD 25 1002 -1 1006 130 60 8 101
2003294N11112 2003 91 WP MM NOT_NAMED 2003-10-22 09:00:00 TS 11.7075 115.343 main 391 346 P_____________ WP222003 11.7075 115.343 TD 25 1002 -1 1006 130 60 9 103
2003294N11112 2003 91 WP MM NOT_NAMED 2003-10-22 12:00:00 TS 11.6000 115.800 main 346 311 O_____________ jtwc_wp WP222003 11.6000 115.800 TD 25 1002 -1 1006 130 60 9 103
2003294N11112 2003 91 WP MM NOT_NAMED 2003-10-22 15:00:00 TS 11.5073 116.227 main 311 271 P_____________ WP222003 11.5073 116.227 TD 25 1002 -1 1006 130 60 9 103
2003294N11112 2003 91 WP MM NOT_NAMED 2003-10-22 18:00:00 TS 11.4000 116.700 main 271 220 O_____________ jtwc_wp WP222003 11.4000 116.700 TD 25 1002 -1 1006 130 60 11 104
2003294N11112 2003 91 WP MM NOT_NAMED 2003-10-22 21:00:00 TS 11.2500 117.270 main 205 148 P_____________ WP222003 11.2500 117.270 TD 25 1002 -1 1006 130 60 12 104
2003294N11112 2003 91 WP MM NOT_NAMED 2003-10-23 00:00:00 TS 11.1000 117.900 main 148 88 O_____________ jtwc_wp WP222003 11.1000 117.900 TD 25 1002 -1 1006 130 60 13 102
2003294N11112 2003 91 WP MM NOT_NAMED 2003-10-23 03:00:00 TS 10.9774 118.535 main 88 10 P_____________ WP222003 10.9774 118.535 TD 25 1002 -1 1006 130 60 13 99
2003294N11112 2003 91 WP MM NOT_NAMED 2003-10-23 06:00:00 TS 10.9000 119.200 main 10 0 O_____________ jtwc_wp WP222003 10.9000 119.200 TD 25 1002 -1 1006 130 60 14 94
2003294N11112 2003 91 WP MM NOT_NAMED 2003-10-23 09:00:00 TS 10.8777 119.937 main 34 34 P_____________ WP222003 10.8777 119.937 TD 25 1002 -1 1006 130 60 14 90
2003294N11112 2003 91 WP MM NOT_NAMED 2003-10-23 12:00:00 TS 10.9000 120.600 main 108 98 O_____________ jtwc_wp WP222003 10.9000 120.600 TD 25 1002 -1 1006 130 60 11 86
2003294N11112 2003 91 WP MM NOT_NAMED 2003-10-23 15:00:00 TS 10.9573 121.052 main 90 59 P_____________ WP222003 10.9573 121.052 TD 22 1003 -1 1006 130 60 8 83
2003294N11112 2003 91 WP MM NOT_NAMED 2003-10-23 18:00:00 TS 11.0000 121.400 main 59 31 O_____________ jtwc_wp WP222003 11.0000 121.400 TD 20 1004 -1 1006 130 60 7 89
2003294N11112 2003 91 WP MM NOT_NAMED 2003-10-23 21:00:00 TS 10.9727 121.745 main 31 0 P_____________ WP222003 10.9727 121.745 TD 20 1004 -1 7 98
2003294N11112 2003 91 WP MM NOT_NAMED 2003-10-24 00:00:00 TS 10.9000 122.100 main 0 O_____________ jtwc_wp WP222003 10.9000 122.100 TD 20 1004 -1 7 102

デジタル台風データ・検索

IBTrACS Databaseについて

本データベースは、米国NOAAが公開する1842年以降の世界の熱帯低気圧のベストトラックデータアーカイブInternational Best Track Archive for Climate Stewardship (IBTrACS)を、ウェブで閲覧しやすい形式に変換したものです。

最終更新日:2021-10-08